createdAt,value
2019-01-10T00:02:11.286Z,53.8
2019-01-10T00:07:15.852Z,53.7
2019-01-10T00:12:19.602Z,53.5
2019-01-10T00:22:25.278Z,54.3
2019-01-10T00:27:29.044Z,53.7
2019-01-10T00:32:33.046Z,53.5
2019-01-10T00:42:50.079Z,53.6
2019-01-10T00:47:42.994Z,53.6
2019-01-10T00:57:49.712Z,53.5
2019-01-10T01:07:56.770Z,53.7
2019-01-10T01:13:01.605Z,53.8
2019-01-10T01:18:06.024Z,54
2019-01-10T01:23:09.668Z,54
2019-01-10T01:28:13.220Z,54
2019-01-10T01:33:16.884Z,53.7
2019-01-10T01:38:20.688Z,54.1
2019-01-10T01:43:24.885Z,54.2
2019-01-10T01:48:29.169Z,54.2
2019-01-10T01:53:33.278Z,54.2
2019-01-10T01:58:37.672Z,54.3
2019-01-10T02:03:42.081Z,54.3
2019-01-10T02:08:46.457Z,54.3
2019-01-10T02:13:50.171Z,54.3
2019-01-10T02:18:54.749Z,54.1
2019-01-10T02:23:58.278Z,54.2
2019-01-10T02:29:01.973Z,54.1
2019-01-10T02:39:09.069Z,54.1
2019-01-10T02:44:13.152Z,54.1
2019-01-10T02:54:19.899Z,54.1
2019-01-10T02:59:23.986Z,54.2
2019-01-10T03:04:28.079Z,54
2019-01-10T03:09:31.810Z,53.8
2019-01-10T03:19:38.408Z,53.6
2019-01-10T03:29:45.332Z,53.7
2019-01-10T03:34:48.946Z,53.6
2019-01-10T03:39:58.061Z,53.6
2019-01-10T03:50:04.446Z,53.5
2019-01-10T04:00:10.432Z,53.5
2019-01-10T04:05:14.144Z,53.3
2019-01-10T04:10:18.400Z,53.3
2019-01-10T04:15:22.024Z,53.3
2019-01-10T04:20:26.129Z,53.4
2019-01-10T04:25:30.152Z,53.2
2019-01-10T04:30:34.716Z,53.2
2019-01-10T04:35:38.588Z,53.2
2019-01-10T04:40:42.365Z,53.2
2019-01-10T04:45:46.403Z,53.9
2019-01-10T04:50:50.082Z,53
2019-01-10T04:55:53.685Z,52.8
2019-01-10T05:00:57.664Z,52.7
2019-01-10T05:06:01.748Z,52.5
2019-01-10T05:16:08.500Z,52.3
2019-01-10T05:21:12.189Z,52.1
2019-01-10T05:26:16.242Z,52
2019-01-10T05:31:20.862Z,52
2019-01-10T05:36:24.550Z,51.9
2019-01-10T05:46:31.053Z,51.8
2019-01-10T05:56:37.891Z,52.1
2019-01-10T06:01:43.604Z,49.6
2019-01-10T06:11:49.405Z,51.1
2019-01-10T06:16:53.809Z,51.1
2019-01-10T06:21:57.759Z,51.2
2019-01-10T06:27:01.466Z,51.1
2019-01-10T06:32:07.136Z,51.1
2019-01-10T06:37:10.891Z,51
2019-01-10T06:42:15.096Z,51
2019-01-10T06:52:21.055Z,50.8
2019-01-10T06:57:24.755Z,50.8
2019-01-10T07:02:29.160Z,50.5
2019-01-10T07:12:36.116Z,50.6
2019-01-10T07:22:42.915Z,50.6
2019-01-10T07:27:47.400Z,50.7
2019-01-10T07:32:51.984Z,50.1
2019-01-10T07:37:55.630Z,49.7
2019-01-10T07:43:00.202Z,49.3
2019-01-10T07:48:03.986Z,48.8
2019-01-10T07:53:08.228Z,48.9
2019-01-10T07:58:13.187Z,48.7
2019-01-10T08:08:20.094Z,48.8
2019-01-10T08:13:23.965Z,49.5
2019-01-10T08:23:31.487Z,48.5
2019-01-10T08:28:35.435Z,48.3
2019-01-10T08:33:39.798Z,48.7
2019-01-10T08:43:46.653Z,48.6
2019-01-10T08:48:50.895Z,48.5
2019-01-10T08:53:56.703Z,48.7
2019-01-10T09:04:03.515Z,51
2019-01-10T09:09:07.886Z,48.8
2019-01-10T09:14:12.323Z,48.7
2019-01-10T09:19:16.433Z,50.2
2019-01-10T09:24:20.587Z,49.1
2019-01-10T09:29:24.817Z,48.9
2019-01-10T09:34:29.263Z,48.7
2019-01-10T09:39:32.813Z,48.9
2019-01-10T09:44:36.454Z,51.1
2019-01-10T09:49:40.860Z,49
2019-01-10T09:54:44.568Z,49.3
2019-01-10T09:59:50.193Z,49.2
2019-01-10T10:04:54.941Z,48.9
2019-01-10T10:09:58.928Z,48.8
2019-01-10T10:15:02.874Z,48.7
2019-01-10T10:20:07.137Z,48.7
2019-01-10T10:25:11.256Z,48.5
2019-01-10T10:30:15.153Z,48.7
2019-01-10T10:35:19.551Z,48.7
2019-01-10T10:40:23.144Z,49.3
2019-01-10T10:45:27.833Z,49.1
2019-01-10T10:50:31.398Z,49.2
2019-01-10T10:55:35.529Z,49.6
2019-01-10T11:00:37.891Z,49.7
2019-01-10T11:05:41.669Z,49.8
2019-01-10T11:15:47.139Z,50.1
2019-01-10T11:20:51.234Z,50.1
2019-01-10T11:25:55.598Z,50.1
2019-01-10T11:30:59.102Z,50.2
2019-01-10T11:36:02.726Z,50
2019-01-10T11:41:07.068Z,50.1
2019-01-10T11:46:20.315Z,50
2019-01-10T11:51:13.549Z,50
2019-01-10T12:01:23.631Z,50
2019-01-10T12:06:27.721Z,49.9
2019-01-10T12:21:37.988Z,49.8
2019-01-10T18:54:52.335Z,47.7
2019-01-10T18:59:59.886Z,47.9
2019-01-10T19:10:10.371Z,25.4
2019-01-10T19:15:14.387Z,39.8
2019-01-10T19:20:20.473Z,36.4
2019-01-10T19:25:26.066Z,37.6
